createdAt,value
2023-01-13T00:01:11.023Z,9.95
2023-01-13T00:03:38.161Z,9.91
2023-01-13T00:06:06.373Z,9.86
2023-01-13T00:08:33.439Z,9.84
2023-01-13T00:11:00.139Z,9.83
2023-01-13T00:13:26.802Z,9.81
2023-01-13T00:16:01.452Z,9.81
2023-01-13T00:18:28.639Z,9.80
2023-01-13T00:21:06.763Z,9.81
2023-01-13T00:23:35.039Z,9.81
2023-01-13T00:26:05.568Z,9.83
2023-01-13T00:28:32.534Z,9.81
2023-01-13T00:31:10.913Z,9.82
2023-01-13T00:33:38.015Z,9.80
2023-01-13T00:36:07.234Z,9.80
2023-01-13T00:38:35.691Z,9.82
2023-01-13T00:41:05.397Z,9.84
2023-01-13T00:43:34.103Z,9.85
2023-01-13T00:46:01.441Z,9.86
2023-01-13T00:48:30.636Z,9.84
2023-01-13T00:51:06.056Z,9.85
2023-01-13T00:53:38.618Z,9.83
2023-01-13T00:56:14.521Z,9.78
2023-01-13T00:58:41.723Z,9.75
2023-01-13T01:01:12.555Z,9.71
2023-01-13T01:03:39.450Z,9.66
2023-01-13T01:06:13.900Z,9.59
2023-01-13T01:08:41.261Z,9.56
2023-01-13T01:11:10.687Z,9.50
2023-01-13T01:13:38.038Z,9.45
2023-01-13T01:16:09.843Z,9.41
2023-01-13T01:18:39.716Z,9.37
2023-01-13T01:21:07.829Z,9.34
2023-01-13T01:23:36.261Z,9.28
2023-01-13T01:26:05.108Z,9.24
2023-01-13T01:28:32.315Z,9.18
2023-01-13T01:30:59.848Z,9.13
2023-01-13T01:33:26.868Z,9.09
2023-01-13T01:35:54.689Z,9.07
2023-01-13T01:38:23.372Z,9.02
2023-01-13T01:40:50.125Z,9.08
2023-01-13T01:43:39.680Z,9.10
2023-01-13T01:46:06.365Z,9.12
2023-01-13T01:48:38.399Z,9.17
2023-01-13T01:51:08.913Z,9.18
2023-01-13T01:53:35.878Z,9.20
2023-01-13T01:56:03.493Z,9.19
2023-01-13T01:58:35.555Z,9.21
2023-01-13T02:01:02.433Z,9.23
2023-01-13T02:03:30.320Z,9.21
2023-01-13T02:05:56.952Z,9.15
2023-01-13T02:08:24.229Z,9.09
2023-01-13T02:10:54.122Z,9.06
2023-01-13T02:13:22.751Z,9.00
2023-01-13T02:16:15.461Z,8.96
2023-01-13T02:19:23.487Z,8.93
2023-01-13T02:22:22.086Z,8.90
2023-01-13T02:25:09.951Z,8.88
2023-01-13T02:27:51.728Z,8.82
2023-01-13T02:30:59.662Z,8.79
2023-01-13T02:33:34.436Z,8.76
2023-01-13T02:36:25.040Z,8.74
2023-01-13T02:38:58.396Z,8.72
2023-01-13T02:41:51.101Z,8.70
2023-01-13T02:44:25.122Z,8.72
2023-01-13T02:47:06.605Z,8.70
2023-01-13T02:49:42.618Z,8.74
2023-01-13T02:52:14.055Z,8.78
2023-01-13T02:54:45.569Z,8.81
2023-01-13T02:57:15.417Z,8.78
2023-01-13T02:59:42.925Z,8.78
2023-01-13T03:02:15.017Z,8.75
2023-01-13T03:04:50.701Z,8.71
2023-01-13T03:07:29.627Z,8.67
2023-01-13T03:10:27.333Z,8.64
2023-01-13T03:13:29.561Z,8.61
2023-01-13T03:16:10.467Z,8.58
2023-01-13T03:19:02.863Z,8.58
2023-01-13T03:21:46.060Z,8.57
2023-01-13T03:24:37.020Z,8.54
2023-01-13T03:27:31.438Z,8.55
2023-01-13T03:30:14.184Z,8.52
2023-01-13T03:32:44.345Z,8.52
2023-01-13T03:35:22.097Z,8.53
2023-01-13T03:37:59.779Z,8.53
2023-01-13T03:40:33.232Z,8.55
2023-01-13T03:43:26.906Z,8.55
2023-01-13T03:46:08.605Z,8.53
2023-01-13T03:48:41.005Z,8.52
2023-01-13T03:51:13.273Z,8.51
2023-01-13T03:53:48.241Z,8.51
2023-01-13T03:56:54.872Z,8.49
2023-01-13T03:59:25.304Z,8.51
2023-01-13T04:02:01.751Z,8.48
2023-01-13T04:04:43.871Z,8.48
2023-01-13T04:07:20.730Z,8.47
2023-01-13T04:09:52.712Z,8.47
2023-01-13T04:12:28.646Z,8.45
2023-01-13T04:14:56.423Z,8.44
2023-01-13T04:17:24.678Z,8.46
2023-01-13T04:19:51.232Z,8.44
2023-01-13T04:22:17.899Z,8.42
2023-01-13T04:24:44.469Z,8.42
2023-01-13T04:27:11.093Z,8.40
2023-01-13T04:29:37.889Z,8.36
2023-01-13T04:32:04.620Z,8.36
2023-01-13T04:34:31.425Z,8.34
2023-01-13T04:36:58.124Z,8.32
2023-01-13T04:39:24.750Z,8.29
2023-01-13T04:42:01.398Z,8.30
2023-01-13T04:44:28.808Z,8.29
2023-01-13T04:46:55.581Z,8.30
2023-01-13T04:49:22.225Z,8.27
2023-01-13T04:51:48.893Z,8.26
2023-01-13T04:54:16.313Z,8.27
2023-01-13T04:56:43.380Z,8.28
2023-01-13T04:59:13.907Z,8.30
2023-01-13T05:01:40.982Z,8.35
2023-01-13T05:04:08.475Z,8.39
2023-01-13T05:06:35.119Z,8.43
2023-01-13T05:09:03.088Z,8.47
2023-01-13T05:11:48.042Z,8.51
2023-01-13T05:14:33.267Z,8.52
2023-01-13T05:17:03.692Z,8.52
2023-01-13T05:19:39.209Z,8.57
2023-01-13T05:22:28.792Z,8.59
2023-01-13T05:25:14.046Z,8.60
2023-01-13T05:27:40.574Z,8.61
2023-01-13T05:30:07.946Z,8.55
2023-01-13T05:32:34.653Z,8.48
2023-01-13T05:35:01.292Z,8.41
2023-01-13T05:37:27.983Z,8.30
2023-01-13T05:40:13.390Z,8.26
2023-01-13T05:42:58.762Z,8.21
2023-01-13T05:45:25.325Z,8.15
2023-01-13T05:47:51.963Z,8.11
2023-01-13T05:50:18.904Z,8.07
2023-01-13T05:52:45.711Z,8.03
2023-01-13T05:55:12.603Z,8.02
2023-01-13T05:57:39.185Z,8.00
2023-01-13T06:00:06.347Z,7.99
2023-01-13T06:02:33.148Z,7.97
2023-01-13T06:04:59.734Z,7.95
2023-01-13T06:07:26.368Z,7.92
2023-01-13T06:09:52.892Z,7.88
2023-01-13T06:12:19.645Z,7.87
2023-01-13T06:14:46.177Z,7.85
2023-01-13T06:17:14.800Z,7.86
2023-01-13T06:19:41.908Z,7.85
2023-01-13T06:22:13.668Z,7.84
2023-01-13T06:24:40.355Z,7.85
2023-01-13T06:27:08.857Z,7.87
2023-01-13T06:29:35.970Z,7.96
2023-01-13T06:32:08.442Z,8.00
2023-01-13T06:34:35.788Z,8.03
2023-01-13T06:37:03.508Z,8.03
2023-01-13T06:39:31.642Z,8.08
2023-01-13T06:42:17.730Z,8.11
2023-01-13T06:44:45.328Z,8.14
2023-01-13T06:47:12.141Z,8.15
2023-01-13T06:49:38.778Z,8.19
2023-01-13T06:52:05.795Z,8.23
2023-01-13T06:54:32.435Z,8.25
2023-01-13T06:56:58.981Z,8.29
2023-01-13T06:59:25.889Z,8.30
2023-01-13T07:01:52.676Z,8.33
2023-01-13T07:04:19.542Z,8.34
2023-01-13T07:06:46.067Z,8.34
2023-01-13T07:09:12.822Z,8.32
2023-01-13T07:11:39.436Z,8.32
2023-01-13T07:14:24.574Z,8.34
2023-01-13T07:16:52.378Z,8.32
2023-01-13T07:19:23.715Z,8.32
2023-01-13T07:21:52.379Z,8.33
2023-01-13T07:24:19.898Z,8.33
2023-01-13T07:26:46.512Z,8.32
2023-01-13T07:29:13.266Z,8.33
2023-01-13T07:31:40.125Z,8.33
2023-01-13T07:34:07.405Z,8.32
2023-01-13T07:36:34.256Z,8.33
2023-01-13T07:39:01.279Z,8.34
2023-01-13T07:41:46.453Z,8.32
2023-01-13T07:44:13.134Z,8.33
2023-01-13T07:46:40.384Z,8.32
2023-01-13T07:49:08.320Z,8.35
2023-01-13T07:51:39.140Z,8.33
2023-01-13T07:54:06.471Z,8.35
2023-01-13T07:56:33.061Z,8.36
2023-01-13T07:59:00.963Z,8.36
2023-01-13T08:01:28.162Z,8.39
2023-01-13T08:03:57.696Z,8.40
2023-01-13T08:06:25.180Z,8.41
2023-01-13T08:08:51.908Z,8.39
2023-01-13T08:11:18.933Z,8.40
2023-01-13T08:13:45.643Z,8.42
2023-01-13T08:16:15.019Z,8.44
2023-01-13T08:18:42.373Z,8.44
2023-01-13T08:21:14.236Z,8.45
2023-01-13T08:23:44.900Z,8.46
2023-01-13T08:26:17.347Z,8.46
2023-01-13T08:28:45.025Z,8.45
2023-01-13T08:31:16.490Z,8.45
2023-01-13T08:33:43.619Z,8.45
2023-01-13T08:36:12.540Z,8.44
2023-01-13T08:38:40.473Z,8.46
2023-01-13T08:41:16.029Z,8.47
2023-01-13T08:43:42.867Z,8.51
2023-01-13T08:46:09.727Z,8.52
2023-01-13T08:48:36.355Z,8.53
2023-01-13T08:51:08.911Z,8.55
2023-01-13T08:53:35.771Z,8.58
2023-01-13T08:56:02.588Z,8.59
2023-01-13T08:58:29.508Z,8.56
2023-01-13T09:00:56.204Z,8.57
2023-01-13T09:03:23.150Z,8.61
2023-01-13T09:05:49.717Z,8.62
2023-01-13T09:08:16.459Z,8.66
2023-01-13T09:10:43.255Z,8.67
2023-01-13T09:13:13.647Z,8.68
2023-01-13T09:15:43.937Z,8.70
2023-01-13T09:18:11.644Z,8.74
2023-01-13T09:20:38.666Z,8.76
2023-01-13T09:23:08.812Z,8.80
2023-01-13T09:25:39.725Z,8.86
2023-01-13T09:28:08.220Z,8.91
2023-01-13T09:30:36.287Z,8.91
2023-01-13T09:33:22.996Z,8.94
2023-01-13T09:35:49.710Z,8.93
2023-01-13T09:38:16.456Z,8.92
2023-01-13T09:40:43.977Z,8.95
2023-01-13T09:43:42.210Z,8.95
2023-01-13T09:46:38.128Z,8.96
2023-01-13T09:49:05.288Z,8.93
2023-01-13T09:51:40.954Z,8.93
2023-01-13T09:54:26.014Z,8.92
2023-01-13T09:56:53.158Z,8.92
2023-01-13T09:59:20.185Z,8.90
2023-01-13T10:01:59.553Z,8.89
2023-01-13T10:04:26.965Z,8.87
2023-01-13T10:06:58.289Z,8.88
2023-01-13T10:09:42.711Z,8.88
2023-01-13T10:12:37.674Z,8.92
2023-01-13T10:15:04.853Z,8.91
2023-01-13T10:17:43.214Z,8.92
2023-01-13T10:20:26.697Z,8.94
2023-01-13T10:23:20.136Z,8.94
2023-01-13T10:26:08.107Z,8.95
2023-01-13T10:28:34.772Z,8.92
2023-01-13T10:31:05.290Z,8.96
2023-01-13T10:33:31.986Z,8.96
2023-01-13T10:36:21.651Z,8.99
2023-01-13T10:38:50.337Z,8.95
2023-01-13T10:41:19.656Z,8.94
2023-01-13T10:43:59.184Z,8.92
2023-01-13T10:46:27.350Z,8.87
2023-01-13T10:48:57.929Z,8.86
2023-01-13T10:51:31.701Z,8.87
2023-01-13T10:54:12.799Z,8.96
2023-01-13T10:56:45.013Z,8.99
2023-01-13T10:59:31.645Z,9.00
2023-01-13T11:02:32.514Z,9.00
2023-01-13T11:05:09.639Z,8.99
2023-01-13T11:07:40.479Z,8.99
2023-01-13T11:10:10.040Z,8.98
2023-01-13T11:12:53.586Z,8.98
2023-01-13T11:15:24.279Z,8.96
2023-01-13T11:18:23.217Z,8.95
2023-01-13T11:20:51.687Z,8.98
2023-01-13T11:23:27.518Z,8.98
2023-01-13T11:26:01.834Z,8.92
2023-01-13T11:28:40.957Z,8.92
2023-01-13T11:31:30.250Z,8.91
2023-01-13T11:34:15.314Z,8.89
2023-01-13T11:36:46.427Z,8.82
2023-01-13T11:39:53.848Z,8.77
2023-01-13T11:42:36.724Z,8.74
2023-01-13T11:45:38.591Z,8.74
2023-01-13T11:48:05.790Z,8.74
2023-01-13T11:50:40.621Z,8.75
2023-01-13T11:53:24.401Z,8.80
2023-01-13T11:55:53.937Z,8.85
2023-01-13T11:58:49.608Z,8.87
2023-01-13T12:01:28.452Z,8.90
2023-01-13T12:04:13.278Z,8.92
2023-01-13T12:06:41.405Z,8.91
2023-01-13T12:09:19.281Z,8.94
2023-01-13T12:12:20.775Z,8.96
2023-01-13T12:15:15.069Z,8.98
2023-01-13T12:18:03.034Z,9.04
2023-01-13T12:20:38.706Z,9.06
2023-01-13T12:23:12.374Z,9.07
2023-01-13T12:25:50.680Z,9.08
2023-01-13T12:28:24.141Z,9.09
2023-01-13T12:30:59.472Z,9.14
2023-01-13T12:33:53.306Z,9.22
2023-01-13T12:36:32.092Z,9.21
2023-01-13T12:39:13.802Z,9.21
2023-01-13T12:42:11.338Z,9.22
2023-01-13T12:44:38.195Z,9.28
2023-01-13T12:47:04.895Z,9.24
2023-01-13T12:49:33.866Z,9.28
2023-01-13T12:52:07.413Z,9.28
2023-01-13T12:54:54.212Z,9.28
2023-01-13T12:57:26.722Z,9.28
2023-01-13T12:59:59.322Z,9.27
2023-01-13T13:02:31.227Z,9.29
2023-01-13T13:05:01.323Z,9.31
2023-01-13T13:07:30.935Z,9.31
2023-01-13T13:10:05.224Z,9.29
2023-01-13T13:12:50.337Z,9.27
2023-01-13T13:15:25.809Z,9.26
2023-01-13T13:18:17.507Z,9.22
2023-01-13T13:20:54.490Z,9.18
2023-01-13T13:23:47.847Z,9.16
2023-01-13T13:26:32.881Z,9.18
2023-01-13T13:29:30.260Z,9.15
2023-01-13T13:32:23.959Z,9.17
2023-01-13T13:35:04.495Z,9.18
2023-01-13T13:37:59.901Z,9.12
2023-01-13T13:40:49.522Z,9.16
2023-01-13T13:43:35.574Z,9.15
2023-01-13T13:46:21.008Z,9.16
2023-01-13T13:48:54.232Z,9.17
2023-01-13T13:51:27.953Z,9.17
2023-01-13T13:53:56.689Z,9.17
2023-01-13T13:56:26.639Z,9.17
2023-01-13T13:58:54.629Z,9.19
2023-01-13T14:01:36.598Z,9.18
2023-01-13T14:04:07.460Z,9.16
2023-01-13T14:06:34.411Z,9.13
2023-01-13T14:09:03.570Z,9.13
2023-01-13T14:11:33.729Z,9.10
2023-01-13T14:14:07.260Z,9.10
2023-01-13T14:16:36.292Z,9.11
2023-01-13T14:19:03.379Z,9.08
2023-01-13T14:21:31.173Z,9.09
2023-01-13T14:23:57.805Z,9.09
2023-01-13T14:26:32.310Z,9.08
2023-01-13T14:29:02.160Z,9.07
2023-01-13T14:31:30.434Z,9.07
2023-01-13T14:34:01.507Z,9.08
2023-01-13T14:36:33.612Z,9.08
2023-01-13T14:39:03.196Z,9.08
2023-01-13T14:41:38.864Z,9.10
2023-01-13T14:44:26.984Z,9.09
2023-01-13T14:46:57.600Z,9.11
2023-01-13T14:49:36.401Z,9.12
2023-01-13T14:52:23.009Z,9.11
2023-01-13T14:54:50.888Z,9.14
2023-01-13T14:57:33.517Z,9.14
2023-01-13T15:00:25.365Z,9.13
2023-01-13T15:02:58.010Z,9.14
2023-01-13T15:05:30.159Z,9.16
2023-01-13T15:08:05.305Z,9.16
2023-01-13T15:10:33.750Z,9.16
2023-01-13T15:13:03.239Z,9.16
2023-01-13T15:15:32.882Z,9.19
2023-01-13T15:18:09.135Z,9.22
2023-01-13T15:20:35.696Z,9.21
2023-01-13T15:23:02.749Z,9.19
2023-01-13T15:25:34.040Z,9.23
2023-01-13T15:28:00.841Z,9.25
2023-01-13T15:30:28.298Z,9.26
2023-01-13T15:32:56.863Z,9.26
2023-01-13T15:35:26.424Z,9.24
2023-01-13T15:37:55.021Z,9.23
2023-01-13T15:40:29.901Z,9.25
2023-01-13T15:43:15.114Z,9.25
2023-01-13T15:46:01.270Z,9.26
2023-01-13T15:48:32.108Z,9.25
2023-01-13T15:50:59.552Z,9.25
2023-01-13T15:53:27.558Z,9.27
2023-01-13T15:55:56.747Z,9.27
2023-01-13T15:58:28.554Z,9.26
2023-01-13T16:00:55.813Z,9.25
2023-01-13T16:03:22.594Z,9.24
2023-01-13T16:05:49.331Z,9.26
2023-01-13T16:08:18.392Z,9.25
2023-01-13T16:10:45.255Z,9.24
2023-01-13T16:13:13.041Z,9.24
2023-01-13T16:15:51.215Z,9.24
2023-01-13T16:18:23.792Z,9.22
2023-01-13T16:20:55.258Z,9.12
2023-01-13T16:23:22.905Z,9.07
2023-01-13T16:25:50.502Z,9.03
2023-01-13T16:28:24.400Z,8.99
2023-01-13T16:30:51.226Z,8.99
2023-01-13T16:33:18.025Z,8.98
2023-01-13T16:36:10.970Z,9.01
2023-01-13T16:38:31.340Z,9.04
2023-01-13T16:40:58.078Z,9.04
2023-01-13T16:43:24.714Z,9.04
2023-01-13T16:45:51.396Z,9.02
2023-01-13T16:48:20.093Z,8.98
2023-01-13T16:50:47.555Z,8.97
2023-01-13T16:53:15.290Z,8.91
2023-01-13T16:55:43.043Z,8.90
2023-01-13T16:58:18.772Z,8.92
2023-01-13T17:00:49.070Z,8.91
2023-01-13T17:03:16.936Z,8.92
2023-01-13T17:05:46.881Z,8.93
2023-01-13T17:08:18.145Z,8.97
2023-01-13T17:10:48.199Z,8.97
2023-01-13T17:13:17.052Z,8.96
2023-01-13T17:15:45.197Z,8.98
2023-01-13T17:18:13.678Z,8.98
2023-01-13T17:20:40.890Z,8.97
2023-01-13T17:23:07.982Z,8.99
2023-01-13T17:25:34.680Z,8.99
2023-01-13T17:28:01.337Z,8.99
2023-01-13T17:30:28.248Z,9.01
2023-01-13T17:32:54.951Z,9.02
2023-01-13T17:35:24.967Z,9.02
2023-01-13T17:37:53.381Z,8.99
2023-01-13T17:40:20.659Z,9.00
2023-01-13T17:42:47.330Z,9.00
2023-01-13T17:45:15.635Z,9.01
2023-01-13T17:47:42.998Z,8.99
2023-01-13T17:50:10.311Z,8.94
2023-01-13T17:52:37.039Z,8.95
2023-01-13T17:55:04.060Z,8.93
2023-01-13T17:57:30.598Z,8.91
2023-01-13T17:59:59.673Z,8.87
2023-01-13T18:02:26.493Z,8.79
2023-01-13T18:04:53.250Z,8.73
2023-01-13T18:07:20.011Z,8.70
2023-01-13T18:09:46.593Z,8.66
2023-01-13T18:12:13.098Z,8.58
2023-01-13T18:14:39.730Z,8.56
2023-01-13T18:17:06.480Z,8.54
2023-01-13T18:19:51.847Z,8.49
2023-01-13T18:22:37.467Z,8.45
2023-01-13T18:25:22.886Z,8.37
2023-01-13T18:27:49.572Z,8.34
2023-01-13T18:30:16.496Z,8.30
2023-01-13T18:32:43.471Z,8.30
2023-01-13T18:35:10.586Z,8.31
2023-01-13T18:37:42.109Z,8.27
2023-01-13T18:40:12.104Z,8.26
2023-01-13T18:42:59.203Z,8.23
2023-01-13T18:45:31.086Z,8.20
2023-01-13T18:48:00.797Z,8.16
2023-01-13T18:50:28.433Z,8.11
2023-01-13T18:52:55.345Z,8.08
2023-01-13T18:55:22.289Z,8.01
2023-01-13T18:57:49.444Z,8.01
2023-01-13T19:00:19.142Z,8.00
2023-01-13T19:02:47.360Z,8.02
2023-01-13T19:05:14.532Z,8.05
2023-01-13T19:07:43.230Z,8.09
2023-01-13T19:10:10.705Z,8.06
2023-01-13T19:12:38.375Z,8.07
2023-01-13T19:15:05.420Z,8.05
2023-01-13T19:17:33.898Z,8.01
2023-01-13T19:20:00.867Z,8.00
2023-01-13T19:22:33.344Z,8.01
2023-01-13T19:25:01.387Z,8.02
2023-01-13T19:27:29.173Z,8.01
2023-01-13T19:30:00.800Z,7.96
2023-01-13T19:32:28.704Z,7.85
2023-01-13T19:34:59.246Z,7.80
2023-01-13T19:37:30.305Z,7.71
2023-01-13T19:39:58.431Z,7.66
2023-01-13T19:42:43.527Z,7.66
2023-01-13T19:45:34.998Z,7.62
2023-01-13T19:48:02.544Z,7.61
2023-01-13T19:50:29.551Z,7.58
2023-01-13T19:52:56.326Z,7.60
2023-01-13T19:55:24.301Z,7.63
2023-01-13T19:57:50.896Z,7.67
2023-01-13T20:00:20.676Z,7.69
2023-01-13T20:02:49.616Z,7.69
2023-01-13T20:05:21.135Z,7.67
2023-01-13T20:07:49.017Z,7.62
2023-01-13T20:10:17.449Z,7.57
2023-01-13T20:12:44.395Z,7.59
2023-01-13T20:15:11.439Z,7.57
2023-01-13T20:17:38.080Z,7.58
2023-01-13T20:20:05.215Z,7.60
2023-01-13T20:22:31.932Z,7.61
2023-01-13T20:24:58.584Z,7.59
2023-01-13T20:27:25.222Z,7.61
2023-01-13T20:29:51.882Z,7.63
2023-01-13T20:32:18.697Z,7.66
2023-01-13T20:34:45.359Z,7.67
2023-01-13T20:37:11.954Z,7.69
2023-01-13T20:39:41.037Z,7.67
2023-01-13T20:42:27.461Z,7.70
2023-01-13T20:44:53.983Z,7.72
2023-01-13T20:47:20.677Z,7.71
2023-01-13T20:49:47.442Z,7.73
2023-01-13T20:52:14.117Z,7.73
2023-01-13T20:54:41.855Z,7.72
2023-01-13T20:57:10.087Z,7.69
2023-01-13T20:59:38.343Z,7.72
2023-01-13T21:02:07.137Z,7.72
2023-01-13T21:04:34.306Z,7.69
2023-01-13T21:07:00.963Z,7.65
2023-01-13T21:09:27.605Z,7.61
2023-01-13T21:12:12.833Z,7.60
2023-01-13T21:14:57.921Z,7.61
2023-01-13T21:17:43.188Z,7.63
2023-01-13T21:20:11.779Z,7.56
2023-01-13T21:22:39.040Z,7.55
2023-01-13T21:25:06.213Z,7.51
2023-01-13T21:27:33.038Z,7.45
2023-01-13T21:29:59.836Z,7.41
2023-01-13T21:32:26.529Z,7.40
2023-01-13T21:34:54.152Z,7.39
2023-01-13T21:37:20.736Z,7.40
2023-01-13T21:39:47.446Z,7.42
2023-01-13T21:42:35.449Z,7.46
2023-01-13T21:45:22.053Z,7.47
2023-01-13T21:47:49.344Z,7.46
2023-01-13T21:50:27.951Z,7.43
2023-01-13T21:52:55.281Z,7.38
2023-01-13T21:55:25.356Z,7.32
2023-01-13T21:57:58.390Z,7.28
2023-01-13T22:00:31.589Z,7.24
2023-01-13T22:03:00.985Z,7.18
2023-01-13T22:05:27.804Z,7.17
2023-01-13T22:07:54.370Z,7.15
2023-01-13T22:10:23.793Z,7.15
2023-01-13T22:12:55.443Z,7.16
2023-01-13T22:15:26.030Z,7.16
2023-01-13T22:17:54.588Z,7.16
2023-01-13T22:20:22.353Z,7.15
2023-01-13T22:22:49.748Z,7.14
2023-01-13T22:25:17.524Z,7.12
2023-01-13T22:27:45.069Z,7.11
2023-01-13T22:30:15.878Z,7.09
2023-01-13T22:32:42.651Z,7.07
2023-01-13T22:35:11.173Z,7.06
2023-01-13T22:37:38.668Z,7.06
2023-01-13T22:40:07.527Z,7.08
2023-01-13T22:42:39.657Z,7.08
2023-01-13T22:45:11.464Z,7.07
2023-01-13T22:47:38.773Z,7.08
2023-01-13T22:50:07.008Z,7.06
2023-01-13T22:52:34.770Z,7.04
2023-01-13T22:55:01.571Z,7.03
2023-01-13T22:57:46.753Z,7.03
2023-01-13T23:00:15.148Z,7.04
2023-01-13T23:02:42.004Z,7.02
2023-01-13T23:05:09.054Z,7.02
2023-01-13T23:07:36.223Z,7.03
2023-01-13T23:10:04.407Z,7.01
2023-01-13T23:12:31.258Z,7.02
2023-01-13T23:14:57.914Z,6.99
2023-01-13T23:17:24.458Z,6.96
2023-01-13T23:19:51.132Z,6.93
2023-01-13T23:22:17.737Z,6.93
2023-01-13T23:24:46.150Z,6.92
2023-01-13T23:27:12.879Z,6.91
2023-01-13T23:29:39.690Z,6.93
2023-01-13T23:32:06.243Z,6.94
2023-01-13T23:34:32.963Z,6.98
2023-01-13T23:36:59.570Z,7.00
2023-01-13T23:39:26.372Z,7.02
2023-01-13T23:41:52.982Z,7.04
2023-01-13T23:44:19.670Z,7.07
2023-01-13T23:46:46.366Z,7.11
2023-01-13T23:49:13.073Z,7.14
2023-01-13T23:51:39.910Z,7.16
2023-01-13T23:54:06.490Z,7.19
2023-01-13T23:56:34.042Z,7.23
2023-01-13T23:59:00.645Z,7.25
